Time;durP1;ratioP1;P1;durP2;ratioP2;P2;SDS_P1;SDS_P2;PMS_P1;PMS_P2;Temp;Humidity;BMP_temperature;BMP_pressure;BME280_temperature;BME280_humidity;BME280_pressure;Samples;Min_cycle;Max_cycle;Signal;HPM_P1;HPM_P2
2023/03/29 00:02:00;;;;;;;;;;;6.40;99.90;;;;;;4955973;28;19970;-77
2023/03/29 00:04:32;;;;;;;;;;;6.40;99.90;;;;;;4956185;28;19941;-78
2023/03/29 00:07:03;;;;;;;;;;;6.40;99.90;;;;;;4955541;28;20013;-78
2023/03/29 00:09:30;;;;;;;;;;;6.40;99.90;;;;;;4956168;28;19926;-79
2023/03/29 00:11:58;;;;;;;;;;;6.40;99.90;;;;;;4955370;28;19976;-78
2023/03/29 00:14:25;;;;;;;;;;;6.40;99.90;;;;;;4956284;28;19928;-78
2023/03/29 00:16:52;;;;;;;;;;;6.40;99.90;;;;;;4956157;28;19933;-77
2023/03/29 00:19:19;;;;;;;;;;;6.40;99.90;;;;;;4955053;28;19933;-78
2023/03/29 00:21:47;;;;;;;;;;;6.40;99.90;;;;;;4963625;28;20377;-78
2023/03/29 00:24:14;;;;;;;;;;;6.40;99.90;;;;;;4952222;28;19934;-78
2023/03/29 00:26:41;;;;;;;;;;;6.40;99.90;;;;;;4976134;28;19922;-78
2023/03/29 00:29:08;;;;;;;;;;;6.40;99.90;;;;;;4968240;28;19936;-79
2023/03/29 00:31:35;;;;;;;;;;;6.40;99.90;;;;;;4991179;28;19932;-78
2023/03/29 00:34:03;;;;;;;;;;;6.40;99.90;;;;;;4967261;28;20025;-78
2023/03/29 00:36:30;;;;;;;;;;;6.40;99.90;;;;;;4962491;28;20005;-78
2023/03/29 00:38:59;;;;;;;;;;;6.40;99.90;;;;;;4964303;28;19937;-78
2023/03/29 00:41:26;;;;;;;;;;;6.40;99.90;;;;;;4963032;28;19926;-76
2023/03/29 00:43:55;;;;;;;;;;;6.50;99.90;;;;;;4958997;28;20303;-76
2023/03/29 00:46:22;;;;;;;;;;;6.50;99.90;;;;;;4962217;28;19926;-77
2023/03/29 00:48:52;;;;;;;;;;;6.50;99.90;;;;;;4961411;28;19926;-77
2023/03/29 00:51:20;;;;;;;;;;;6.50;99.90;;;;;;4959803;28;19929;-78
2023/03/29 00:53:49;;;;;;;;;;;6.50;99.90;;;;;;4963700;28;19932;-77
2023/03/29 00:56:21;;;;;;;;;;;6.50;99.90;;;;;;4949582;28;20350;-77
2023/03/29 00:58:50;;;;;;;;;;;6.50;99.90;;;;;;4958610;29;19930;-77
2023/03/29 01:01:20;;;;;;;;;;;6.50;99.90;;;;;;4958405;28;19922;-77
2023/03/29 01:03:52;;;;;;;;;;;6.50;99.90;;;;;;4977642;28;19922;-77
2023/03/29 01:06:21;;;;;;;;;;;6.50;99.90;;;;;;4977251;28;20361;-77
2023/03/29 01:08:50;;;;;;;;;;;6.50;99.90;;;;;;4943788;28;19930;-77
2023/03/29 01:11:21;;;;;;;;;;;6.50;99.90;;;;;;4971677;28;20367;-79
2023/03/29 01:13:50;;;;;;;;;;;6.50;99.90;;;;;;4955342;28;19953;-78
2023/03/29 01:16:18;;;;;;;;;;;6.50;99.90;;;;;;4955164;28;20409;-78
2023/03/29 01:18:47;;;;;;;;;;;6.50;99.90;;;;;;4954401;28;19921;-77
2023/03/29 01:21:22;;;;;;;;;;;6.50;99.90;;;;;;4953571;28;19922;-78
2023/03/29 01:24:08;;;;;;;;;;;6.50;99.90;;;;;;4946670;28;20021;-78
2023/03/29 01:26:41;;;;;;;;;;;6.60;99.90;;;;;;4940919;28;19961;-77
2023/03/29 01:29:11;;;;;;;;;;;6.60;99.90;;;;;;4953967;28;19922;-79
2023/03/29 01:31:39;;;;;;;;;;;6.60;99.90;;;;;;4954909;28;19932;-78
2023/03/29 01:34:09;;;;;;;;;;;6.60;99.90;;;;;;4972669;28;19926;-78
2023/03/29 01:36:38;;;;;;;;;;;6.60;99.90;;;;;;4954509;28;19932;-79
2023/03/29 01:39:06;;;;;;;;;;;6.60;99.90;;;;;;4954901;28;20519;-78
2023/03/29 01:41:36;;;;;;;;;;;6.60;99.90;;;;;;4971214;28;19922;-78
2023/03/29 01:44:06;;;;;;;;;;;6.60;99.90;;;;;;4953891;28;19930;-79
2023/03/29 01:46:37;;;;;;;;;;;6.60;99.90;;;;;;4942175;29;20351;-78
2023/03/29 01:49:09;;;;;;;;;;;6.60;99.90;;;;;;4953928;28;19926;-78
2023/03/29 01:51:39;;;;;;;;;;;6.60;99.90;;;;;;4954453;28;19926;-79
2023/03/29 01:54:07;;;;;;;;;;;6.50;99.90;;;;;;4953438;28;19933;-78
2023/03/29 01:56:36;;;;;;;;;;;6.60;99.90;;;;;;4953105;28;20302;-79
2023/03/29 01:59:04;;;;;;;;;;;6.60;99.90;;;;;;4970464;28;19957;-79
2023/03/29 02:01:37;;;;;;;;;;;6.70;99.90;;;;;;4954182;28;19926;-80
2023/03/29 02:04:06;;;;;;;;;;;6.70;99.90;;;;;;4953671;28;19933;-79
2023/03/29 02:06:34;;;;;;;;;;;6.80;99.90;;;;;;4971170;28;19926;-81
2023/03/29 02:09:02;;;;;;;;;;;6.80;99.90;;;;;;4952215;28;19933;-76
2023/03/29 02:11:29;;;;;;;;;;;6.80;99.90;;;;;;4953285;28;20448;-79
2023/03/29 02:13:56;;;;;;;;;;;6.80;99.90;;;;;;4955437;28;20503;-80
2023/03/29 02:16:23;;;;;;;;;;;6.80;99.90;;;;;;4956497;28;19926;-78
2023/03/29 02:18:53;;;;;;;;;;;6.80;99.90;;;;;;4957524;28;20385;-79
2023/03/29 02:21:24;;;;;;;;;;;6.80;99.90;;;;;;4974957;28;20391;-79
2023/03/29 02:23:53;;;;;;;;;;;6.80;99.90;;;;;;4974773;28;19961;-79
2023/03/29 02:26:21;;;;;;;;;;;6.90;99.90;;;;;;4973708;28;19926;-81
2023/03/29 02:28:48;;;;;;;;;;;6.90;99.90;;;;;;4958057;28;20697;-79
2023/03/29 02:31:17;;;;;;;;;;;6.90;99.90;;;;;;4958277;28;19922;-79
2023/03/29 02:33:47;;;;;;;;;;;7.00;99.90;;;;;;4958559;28;19934;-80
2023/03/29 02:36:19;;;;;;;;;;;7.00;99.90;;;;;;4942410;28;19922;-80
2023/03/29 02:38:46;;;;;;;;;;;7.00;99.90;;;;;;4958773;28;19922;-79
2023/03/29 02:41:15;;;;;;;;;;;7.00;99.90;;;;;;4957575;28;19922;-79
2023/03/29 02:43:42;;;;;;;;;;;7.10;99.90;;;;;;4957121;28;19926;-80
2023/03/29 02:46:10;;;;;;;;;;;7.10;99.90;;;;;;4958063;28;19941;-81
2023/03/29 02:48:38;;;;;;;;;;;7.10;99.90;;;;;;4958258;28;19926;-78
2023/03/29 02:51:08;;;;;;;;;;;7.10;99.90;;;;;;4956872;28;20441;-79
2023/03/29 02:53:40;;;;;;;;;;;7.10;99.90;;;;;;4955408;28;20386;-78
2023/03/29 02:56:08;;;;;;;;;;;7.10;99.90;;;;;;4955034;28;19926;-81
2023/03/29 02:58:35;;;;;;;;;;;7.20;99.90;;;;;;4959999;28;20416;-76
2023/03/29 03:01:04;;;;;;;;;;;7.20;99.90;;;;;;4956683;28;20054;-77
2023/03/29 03:03:32;;;;;;;;;;;7.20;99.90;;;;;;4956697;28;19922;-77
2023/03/29 03:06:01;;;;;;;;;;;7.20;99.90;;;;;;4958779;28;19922;-77
2023/03/29 03:08:29;;;;;;;;;;;7.30;99.90;;;;;;4959768;28;19928;-79
2023/03/29 03:10:58;;;;;;;;;;;7.30;99.90;;;;;;4960684;28;19926;-81
2023/03/29 03:13:26;;;;;;;;;;;7.30;99.90;;;;;;4966769;28;19930;-81
2023/03/29 03:15:53;;;;;;;;;;;7.40;99.90;;;;;;4983035;28;19949;-81
2023/03/29 03:18:21;;;;;;;;;;;7.40;99.90;;;;;;4960221;28;20448;-84
2023/03/29 03:20:54;;;;;;;;;;;7.50;99.90;;;;;;4977889;28;19964;-85
2023/03/29 03:23:21;;;;;;;;;;;7.50;99.90;;;;;;4960187;28;19926;-84
2023/03/29 03:25:49;;;;;;;;;;;7.50;99.90;;;;;;4959330;28;19930;-86
2023/03/29 03:28:17;;;;;;;;;;;7.60;99.90;;;;;;4985081;28;19933;-85
2023/03/29 03:30:44;;;;;;;;;;;7.50;99.90;;;;;;4962849;28;19926;-85
2023/03/29 03:33:17;;;;;;;;;;;7.60;99.90;;;;;;4978227;28;19926;-84
2023/03/29 03:35:48;;;;;;;;;;;7.60;99.90;;;;;;4978254;28;19925;-85
2023/03/29 03:38:16;;;;;;;;;;;7.60;99.90;;;;;;4959307;28;19926;-78
2023/03/29 03:40:44;;;;;;;;;;;7.70;99.90;;;;;;4955382;28;20012;-78
2023/03/29 03:43:12;;;;;;;;;;;7.60;99.90;;;;;;4955763;28;19933;-79
2023/03/29 03:45:42;;;;;;;;;;;7.60;99.90;;;;;;4954538;28;20402;-78
2023/03/29 03:48:16;;;;;;;;;;;7.60;99.90;;;;;;4956232;28;20349;-79
2023/03/29 03:50:49;;;;;;;;;;;7.60;99.90;;;;;;4956981;28;19925;-78
2023/03/29 03:53:17;;;;;;;;;;;7.60;99.90;;;;;;4957358;28;19963;-78
2023/03/29 03:56:19;;;;;;;;;;;7.60;99.90;;;;;;4914218;29;19938;-79
2023/03/29 03:59:16;;;;;;;;;;;7.60;99.90;;;;;;4963458;28;20161;-78
2023/03/29 04:02:05;;;;;;;;;;;7.60;99.90;;;;;;4953868;28;20012;-78
2023/03/29 04:04:33;;;;;;;;;;;7.60;99.90;;;;;;4963256;28;19922;-79
2023/03/29 04:07:16;;;;;;;;;;;7.70;99.90;;;;;;4974965;28;19960;-81
2023/03/29 04:10:09;;;;;;;;;;;7.70;99.90;;;;;;4964995;28;19926;-80
2023/03/29 04:13:07;;;;;;;;;;;7.70;99.90;;;;;;4976697;28;20016;-79
2023/03/29 04:15:44;;;;;;;;;;;7.60;99.90;;;;;;4960998;28;19945;-79
2023/03/29 04:18:14;;;;;;;;;;;7.70;99.90;;;;;;4959052;28;19922;-77
2023/03/29 04:20:46;;;;;;;;;;;7.70;99.90;;;;;;4964095;28;19925;-80
2023/03/29 04:23:16;;;;;;;;;;;7.70;99.90;;;;;;4964597;28;20306;-81
2023/03/29 04:25:46;;;;;;;;;;;7.60;99.90;;;;;;4960163;28;19966;-81
2023/03/29 04:28:32;;;;;;;;;;;7.60;99.90;;;;;;4968609;28;20441;-79
2023/03/29 04:31:13;;;;;;;;;;;7.50;99.90;;;;;;4962067;28;19956;-85
2023/03/29 04:34:00;;;;;;;;;;;7.50;99.90;;;;;;4961442;28;20168;-83
2023/03/29 04:36:28;;;;;;;;;;;7.40;99.90;;;;;;4965178;28;20022;-84
2023/03/29 04:38:55;;;;;;;;;;;7.40;99.90;;;;;;4963765;28;19925;-83
2023/03/29 04:41:23;;;;;;;;;;;7.40;99.90;;;;;;4961635;28;19933;-82
2023/03/29 04:43:52;;;;;;;;;;;7.40;99.90;;;;;;4983130;28;19932;-83
2023/03/29 04:46:25;;;;;;;;;;;7.40;99.90;;;;;;4943219;28;19929;-83
2023/03/29 04:49:25;;;;;;;;;;;7.30;99.90;;;;;;4942714;28;19970;-82
2023/03/29 04:51:53;;;;;;;;;;;7.30;99.90;;;;;;4960328;28;20009;-83
2023/03/29 04:54:23;;;;;;;;;;;7.30;99.90;;;;;;4959663;28;19922;-82
2023/03/29 04:57:16;;;;;;;;;;;7.30;99.90;;;;;;4976465;28;19979;-81
2023/03/29 05:00:04;;;;;;;;;;;7.20;99.90;;;;;;4961023;28;19989;-80
2023/03/29 05:02:54;;;;;;;;;;;7.20;99.90;;;;;;4961112;28;19910;-80
2023/03/29 05:05:24;;;;;;;;;;;7.20;99.90;;;;;;4961015;28;20502;-80
2023/03/29 05:07:51;;;;;;;;;;;7.20;99.90;;;;;;4960886;28;19937;-81
2023/03/29 05:10:23;;;;;;;;;;;7.10;99.90;;;;;;4960442;28;19922;-81
2023/03/29 05:12:52;;;;;;;;;;;7.10;99.90;;;;;;4976310;28;19964;-80
2023/03/29 05:15:20;;;;;;;;;;;7.10;99.90;;;;;;4959840;28;20532;-81
2023/03/29 05:17:49;;;;;;;;;;;7.10;99.90;;;;;;4962224;28;19929;-84
2023/03/29 05:20:18;;;;;;;;;;;7.10;99.90;;;;;;4957806;28;19953;-82
2023/03/29 05:22:51;;;;;;;;;;;7.10;99.90;;;;;;4979164;28;19930;-83
2023/03/29 05:25:39;;;;;;;;;;;7.00;99.90;;;;;;4981757;28;19933;-81
2023/03/29 05:28:07;;;;;;;;;;;7.00;99.90;;;;;;4977626;28;20000;-82
2023/03/29 05:30:34;;;;;;;;;;;7.00;99.90;;;;;;4959639;28;20438;-81
2023/03/29 05:33:12;;;;;;;;;;;7.00;99.90;;;;;;4961370;28;19934;-81
2023/03/29 05:35:39;;;;;;;;;;;7.10;99.90;;;;;;4961919;28;19949;-83
2023/03/29 05:38:10;;;;;;;;;;;7.00;99.90;;;;;;4961310;28;19980;-82
2023/03/29 05:40:37;;;;;;;;;;;7.10;99.90;;;;;;4963467;28;19929;-82
2023/03/29 05:43:23;;;;;;;;;;;7.20;99.90;;;;;;4982016;28;19932;-83
2023/03/29 05:45:52;;;;;;;;;;;7.20;99.90;;;;;;4963518;28;20401;-82
2023/03/29 05:48:19;;;;;;;;;;;7.30;99.90;;;;;;4963929;28;20025;-83
2023/03/29 05:50:47;;;;;;;;;;;7.30;99.90;;;;;;4961985;28;20330;-82
2023/03/29 05:53:16;;;;;;;;;;;7.40;99.90;;;;;;4963823;28;19929;-78
2023/03/29 05:55:43;;;;;;;;;;;7.40;99.90;;;;;;4958151;28;19926;-77
2023/03/29 05:58:33;;;;;;;;;;;7.40;99.90;;;;;;4958897;28;19926;-76
2023/03/29 06:01:04;;;;;;;;;;;7.50;99.90;;;;;;4965561;28;19922;-77
2023/03/29 06:03:51;;;;;;;;;;;7.50;99.90;;;;;;4940174;29;19922;-78
2023/03/29 06:06:20;;;;;;;;;;;7.50;99.90;;;;;;4973540;28;20370;-77
2023/03/29 06:08:49;;;;;;;;;;;7.50;99.90;;;;;;4958610;28;20009;-77
2023/03/29 06:11:52;;;;;;;;;;;7.60;99.90;;;;;;4963114;28;19922;-78
2023/03/29 06:14:41;;;;;;;;;;;7.60;99.90;;;;;;4975881;28;19925;-79
2023/03/29 06:17:22;;;;;;;;;;;7.70;99.90;;;;;;4957684;28;20020;-79
2023/03/29 06:19:51;;;;;;;;;;;7.70;99.90;;;;;;4958763;28;20024;-79
2023/03/29 06:22:19;;;;;;;;;;;7.80;99.90;;;;;;4958531;28;19969;-79
2023/03/29 06:24:47;;;;;;;;;;;7.80;99.90;;;;;;4958911;28;19922;-79
2023/03/29 06:27:23;;;;;;;;;;;7.90;99.90;;;;;;4958986;28;19969;-79
2023/03/29 06:29:51;;;;;;;;;;;8.00;99.90;;;;;;4958256;28;19922;-79
2023/03/29 06:32:26;;;;;;;;;;;8.00;99.90;;;;;;4962256;28;20016;-78
2023/03/29 06:35:17;;;;;;;;;;;8.10;99.90;;;;;;4977081;28;20044;-79
2023/03/29 06:37:52;;;;;;;;;;;8.20;99.90;;;;;;4985958;28;19985;-79
2023/03/29 06:40:29;;;;;;;;;;;8.20;99.90;;;;;;4989333;28;19949;-79
2023/03/29 06:42:58;;;;;;;;;;;8.20;99.90;;;;;;4956351;28;19949;-79
2023/03/29 06:45:28;;;;;;;;;;;8.20;99.90;;;;;;4974801;28;19926;-79
2023/03/29 06:47:59;;;;;;;;;;;8.40;99.90;;;;;;4956479;28;19922;-79
2023/03/29 06:50:26;;;;;;;;;;;8.40;99.90;;;;;;4956238;28;19926;-79
2023/03/29 06:53:01;;;;;;;;;;;8.50;99.90;;;;;;4956158;28;19922;-78
2023/03/29 06:55:31;;;;;;;;;;;8.60;99.90;;;;;;4957321;28;19957;-79
2023/03/29 06:58:07;;;;;;;;;;;8.70;99.90;;;;;;4959106;28;19997;-79
2023/03/29 07:00:36;;;;;;;;;;;8.70;99.90;;;;;;4960949;28;19926;-79
2023/03/29 07:03:22;;;;;;;;;;;8.70;99.90;;;;;;4958194;28;19926;-79
2023/03/29 07:05:51;;;;;;;;;;;8.70;99.90;;;;;;4957715;28;20023;-79
2023/03/29 07:08:21;;;;;;;;;;;8.70;99.90;;;;;;4942300;29;20052;-78
2023/03/29 07:11:00;;;;;;;;;;;8.80;99.90;;;;;;4964218;28;19989;-78
2023/03/29 07:13:57;;;;;;;;;;;8.90;99.90;;;;;;4967753;28;19922;-79
2023/03/29 07:16:27;;;;;;;;;;;8.90;99.90;;;;;;4960404;28;19933;-78
2023/03/29 07:19:08;;;;;;;;;;;9.00;99.90;;;;;;4940421;29;19927;-78
2023/03/29 07:21:57;;;;;;;;;;;9.00;99.90;;;;;;4949710;29;19926;-80
2023/03/29 07:24:35;;;;;;;;;;;9.10;99.90;;;;;;4955661;28;19929;-79
2023/03/29 07:27:03;;;;;;;;;;;9.10;99.90;;;;;;4953648;28;19926;-79
2023/03/29 07:29:31;;;;;;;;;;;9.20;99.90;;;;;;4960953;28;20386;-80
2023/03/29 07:31:57;;;;;;;;;;;9.20;99.90;;;;;;4961287;28;19922;-79
2023/03/29 07:34:43;;;;;;;;;;;9.20;99.90;;;;;;4978830;28;19926;-79
2023/03/29 07:37:19;;;;;;;;;;;9.10;99.90;;;;;;4960633;28;19922;-80
2023/03/29 07:39:47;;;;;;;;;;;9.10;99.90;;;;;;4960826;28;19930;-79
2023/03/29 07:42:46;;;;;;;;;;;9.20;99.90;;;;;;4918466;28;20157;-80
2023/03/29 07:45:20;;;;;;;;;;;9.30;99.90;;;;;;4960641;28;20291;-79
2023/03/29 07:47:59;;;;;;;;;;;9.50;99.90;;;;;;4960466;28;19992;-79
2023/03/29 07:50:31;;;;;;;;;;;9.60;99.90;;;;;;4959470;28;20260;-80
2023/03/29 07:53:01;;;;;;;;;;;9.70;99.90;;;;;;4960315;28;20052;-79
2023/03/29 07:55:29;;;;;;;;;;;9.70;99.90;;;;;;4961568;28;19965;-79
2023/03/29 07:58:05;;;;;;;;;;;9.80;99.90;;;;;;4960615;28;20355;-79
2023/03/29 08:00:33;;;;;;;;;;;9.80;99.90;;;;;;4959791;28;19926;-79
2023/03/29 08:03:23;;;;;;;;;;;9.80;99.90;;;;;;4975247;28;19926;-80
2023/03/29 08:05:50;;;;;;;;;;;9.70;99.90;;;;;;4961795;28;19926;-80
2023/03/29 08:08:17;;;;;;;;;;;9.80;99.90;;;;;;4970253;28;19930;-79
2023/03/29 08:10:54;;;;;;;;;;;9.70;99.90;;;;;;4961067;28;19921;-79
2023/03/29 08:13:46;;;;;;;;;;;9.70;99.90;;;;;;4974923;28;20290;-78
2023/03/29 08:16:23;;;;;;;;;;;9.70;99.90;;;;;;4956560;28;19926;-78
2023/03/29 08:18:58;;;;;;;;;;;9.80;99.90;;;;;;4938966;29;20013;-78
2023/03/29 08:21:35;;;;;;;;;;;9.90;99.90;;;;;;4953938;28;19926;-78
2023/03/29 08:24:02;;;;;;;;;;;9.90;99.90;;;;;;4958345;28;19936;-78
2023/03/29 08:26:44;;;;;;;;;;;9.90;99.90;;;;;;4953830;28;19922;-79
2023/03/29 08:29:15;;;;;;;;;;;10.00;99.90;;;;;;4957833;28;19926;-80
2023/03/29 08:31:44;;;;;;;;;;;10.10;99.90;;;;;;4952333;28;19926;-79
2023/03/29 08:34:11;;;;;;;;;;;10.20;99.90;;;;;;4974466;28;19925;-79
2023/03/29 08:36:41;;;;;;;;;;;10.30;99.90;;;;;;4974226;28;19968;-79
2023/03/29 08:39:17;;;;;;;;;;;10.40;99.90;;;;;;4953622;29;20298;-79
2023/03/29 08:41:57;;;;;;;;;;;10.50;99.90;;;;;;4958912;28;19930;-80
2023/03/29 08:44:34;;;;;;;;;;;10.60;99.90;;;;;;4955863;28;19929;-79
2023/03/29 08:47:10;;;;;;;;;;;10.70;99.90;;;;;;4955935;28;19922;-80
2023/03/29 08:49:44;;;;;;;;;;;10.80;99.90;;;;;;4958556;28;20293;-78
2023/03/29 08:52:18;;;;;;;;;;;11.00;99.90;;;;;;4957419;28;19989;-79
2023/03/29 08:54:46;;;;;;;;;;;11.10;99.90;;;;;;4956999;28;20538;-79
2023/03/29 08:57:24;;;;;;;;;;;11.30;99.90;;;;;;4956186;28;19922;-79
2023/03/29 08:59:58;;;;;;;;;;;11.40;99.90;;;;;;4943441;28;19977;-78
2023/03/29 09:02:26;;;;;;;;;;;11.60;99.90;;;;;;4957679;28;19922;-79
2023/03/29 09:05:00;;;;;;;;;;;11.70;99.90;;;;;;4957617;28;20044;-80
2023/03/29 09:07:47;;;;;;;;;;;11.80;99.90;;;;;;4954156;28;20448;-78
2023/03/29 09:10:16;;;;;;;;;;;11.90;99.90;;;;;;4958194;28;19938;-78
2023/03/29 09:12:53;;;;;;;;;;;12.00;99.90;;;;;;4954596;28;19943;-78
2023/03/29 09:15:26;;;;;;;;;;;12.00;99.90;;;;;;4971546;28;20381;-79
2023/03/29 09:18:03;;;;;;;;;;;12.10;99.90;;;;;;4971334;28;20024;-79
2023/03/29 09:20:35;;;;;;;;;;;12.00;99.90;;;;;;4954702;28;20532;-79
2023/03/29 09:23:09;;;;;;;;;;;12.10;99.90;;;;;;4953338;28;19931;-80
2023/03/29 09:25:57;;;;;;;;;;;12.30;99.90;;;;;;4954886;28;19925;-80
2023/03/29 09:28:36;;;;;;;;;;;12.60;99.90;;;;;;4957284;28;19928;-80
2023/03/29 09:31:06;;;;;;;;;;;12.90;99.90;;;;;;4973893;28;19932;-80
2023/03/29 09:33:41;;;;;;;;;;;13.10;99.90;;;;;;4960162;28;19929;-80
2023/03/29 09:36:17;;;;;;;;;;;13.30;99.90;;;;;;4956906;28;19932;-77
2023/03/29 09:38:48;;;;;;;;;;;13.50;99.90;;;;;;4960941;28;20294;-79
2023/03/29 09:41:21;;;;;;;;;;;13.70;99.90;;;;;;4957962;28;19922;-79
2023/03/29 09:43:50;;;;;;;;;;;14.10;99.90;;;;;;4960232;28;19960;-82
2023/03/29 09:46:24;;;;;;;;;;;14.30;99.90;;;;;;4963490;28;19953;-82
2023/03/29 09:48:53;;;;;;;;;;;14.30;99.90;;;;;;4964413;28;19926;-81
2023/03/29 09:51:22;;;;;;;;;;;14.40;99.90;;;;;;4961956;28;19937;-82
2023/03/29 09:53:49;;;;;;;;;;;14.60;99.90;;;;;;4972951;28;19984;-83
2023/03/29 09:56:29;;;;;;;;;;;14.70;99.90;;;;;;4963673;28;20004;-81
2023/03/29 09:59:04;;;;;;;;;;;14.80;99.90;;;;;;4975163;28;19922;-82
2023/03/29 10:01:37;;;;;;;;;;;14.80;99.90;;;;;;4994624;28;19925;-81
2023/03/29 10:04:06;;;;;;;;;;;14.80;99.90;;;;;;4976251;28;19922;-81
2023/03/29 10:06:42;;;;;;;;;;;14.80;99.90;;;;;;4964387;28;19922;-81
2023/03/29 10:09:15;;;;;;;;;;;14.90;99.90;;;;;;4963213;28;19964;-82
2023/03/29 10:11:47;;;;;;;;;;;15.20;99.90;;;;;;4963789;28;19922;-81
2023/03/29 10:14:16;;;;;;;;;;;15.40;99.90;;;;;;4964085;28;19926;-82
2023/03/29 10:16:46;;;;;;;;;;;15.70;99.90;;;;;;4980375;28;19926;-82
2023/03/29 10:19:16;;;;;;;;;;;16.00;99.90;;;;;;4979715;28;19933;-82
2023/03/29 10:21:45;;;;;;;;;;;16.20;99.90;;;;;;4961605;28;19945;-82
2023/03/29 10:24:11;;;;;;;;;;;16.40;99.90;;;;;;4961771;28;19934;-82
2023/03/29 10:26:52;;;;;;;;;;;16.50;99.90;;;;;;4961270;28;19932;-80
2023/03/29 10:29:19;;;;;;;;;;;16.60;99.90;;;;;;4961037;28;19926;-79
2023/03/29 10:31:47;;;;;;;;;;;16.70;99.90;;;;;;4961616;28;19933;-80
2023/03/29 10:34:18;;;;;;;;;;;16.80;99.90;;;;;;4962012;28;19921;-80
2023/03/29 10:36:56;;;;;;;;;;;16.60;99.90;;;;;;4965599;28;19926;-80
2023/03/29 10:39:24;;;;;;;;;;;16.70;99.90;;;;;;4968185;28;19926;-81
2023/03/29 10:41:52;;;;;;;;;;;17.00;99.90;;;;;;4979167;28;19926;-79
2023/03/29 10:44:27;;;;;;;;;;;17.30;99.90;;;;;;4960424;28;19972;-79
2023/03/29 10:47:06;;;;;;;;;;;17.70;99.90;;;;;;4960342;28;19926;-79
2023/03/29 10:49:39;;;;;;;;;;;17.90;99.90;;;;;;4962326;28;20326;-79
2023/03/29 10:52:08;;;;;;;;;;;17.80;99.90;;;;;;4962310;28;19946;-80
2023/03/29 10:54:35;;;;;;;;;;;18.10;99.90;;;;;;4963622;28;20338;-78
2023/03/29 10:57:05;;;;;;;;;;;18.30;99.90;;;;;;4961342;28;19926;-77
2023/03/29 10:59:34;;;;;;;;;;;18.30;99.90;;;;;;4964243;28;19929;-79
2023/03/29 11:02:22;;;;;;;;;;;18.40;99.90;;;;;;4957947;28;20309;-78
2023/03/29 11:04:58;;;;;;;;;;;18.40;99.90;;;;;;4953497;28;19926;-78
2023/03/29 11:07:28;;;;;;;;;;;18.50;99.90;;;;;;4964563;28;19933;-79
2023/03/29 11:10:02;;;;;;;;;;;18.70;99.90;;;;;;4980384;28;19929;-80
2023/03/29 11:12:31;;;;;;;;;;;18.80;99.90;;;;;;4984008;28;19933;-81
2023/03/29 11:15:03;;;;;;;;;;;18.70;99.90;;;;;;4982299;28;19932;-81
2023/03/29 11:17:36;;;;;;;;;;;18.60;99.90;;;;;;4974618;28;19922;-80
2023/03/29 11:20:24;;;;;;;;;;;18.40;99.90;;;;;;4966357;28;19929;-81
2023/03/29 11:22:56;;;;;;;;;;;18.40;99.90;;;;;;4961701;28;19922;-80
2023/03/29 11:25:29;;;;;;;;;;;18.20;99.90;;;;;;4966367;28;19941;-80
2023/03/29 11:28:00;;;;;;;;;;;18.00;99.90;;;;;;4983181;28;19932;-80
2023/03/29 11:30:30;;;;;;;;;;;17.70;99.90;;;;;;4961702;28;19929;-80
2023/03/29 11:33:03;;;;;;;;;;;17.40;99.90;;;;;;4965282;28;20351;-80
2023/03/29 11:35:36;;;;;;;;;;;17.10;99.90;;;;;;4966578;28;19926;-80
2023/03/29 11:38:08;;;;;;;;;;;16.80;99.90;;;;;;4974259;28;19922;-81
2023/03/29 11:40:42;;;;;;;;;;;16.70;99.90;;;;;;4992082;28;19926;-80
2023/03/29 11:43:14;;;;;;;;;;;16.60;99.90;;;;;;4965035;28;19910;-81
2023/03/29 11:45:43;;;;;;;;;;;16.60;99.90;;;;;;4964889;28;19911;-81
2023/03/29 11:48:14;;;;;;;;;;;16.80;99.90;;;;;;4963218;28;20001;-81
2023/03/29 11:50:46;;;;;;;;;;;17.20;99.90;;;;;;4965384;28;19932;-81
2023/03/29 11:53:16;;;;;;;;;;;17.60;99.90;;;;;;4965746;28;19949;-82
2023/03/29 11:55:43;;;;;;;;;;;17.90;99.90;;;;;;4984888;28;20139;-82
2023/03/29 11:58:13;;;;;;;;;;;18.00;99.90;;;;;;4985154;28;19933;-82
2023/03/29 12:00:42;;;;;;;;;;;18.10;99.90;;;;;;4999869;28;19945;-81
2023/03/29 12:03:21;;;;;;;;;;;18.10;99.90;;;;;;5000161;28;19983;-82
2023/03/29 12:05:56;;;;;;;;;;;18.30;99.90;;;;;;4951291;28;20622;-80
2023/03/29 12:08:25;;;;;;;;;;;18.50;99.90;;;;;;4966158;28;19930;-81
2023/03/29 12:10:56;;;;;;;;;;;18.70;99.90;;;;;;4999613;28;20470;-80
2023/03/29 12:13:26;;;;;;;;;;;19.00;99.90;;;;;;4967198;28;19964;-81
2023/03/29 12:15:57;;;;;;;;;;;19.20;99.90;;;;;;4985209;28;19984;-81
2023/03/29 12:18:27;;;;;;;;;;;19.20;99.90;;;;;;4985546;28;19922;-80
2023/03/29 12:20:57;;;;;;;;;;;19.40;99.90;;;;;;4967612;28;19937;-82
2023/03/29 12:23:25;;;;;;;;;;;19.40;99.90;;;;;;4966682;28;19948;-82
2023/03/29 12:25:57;;;;;;;;;;;19.30;99.90;;;;;;4968807;28;19928;-83
2023/03/29 12:28:34;;;;;;;;;;;19.30;99.90;;;;;;4967531;28;20400;-81
2023/03/29 12:31:06;;;;;;;;;;;19.30;99.90;;;;;;4967080;28;19926;-82
2023/03/29 12:33:48;;;;;;;;;;;19.30;99.90;;;;;;4985515;28;19925;-82
2023/03/29 12:36:50;;;;;;;;;;;19.40;99.90;;;;;;4979139;28;19933;-77
2023/03/29 12:39:40;;;;;;;;;;;19.40;99.90;;;;;;4945758;28;19926;-78
2023/03/29 12:42:52;;;;;;;;;;;19.50;99.90;;;;;;4906667;29;20097;-78
2023/03/29 12:45:42;;;;;;;;;;;19.60;99.90;;;;;;4881942;29;19932;-78
2023/03/29 12:48:13;;;;;;;;;;;19.80;99.90;;;;;;4933925;28;19925;-78
2023/03/29 12:50:43;;;;;;;;;;;19.90;99.90;;;;;;4971990;28;19925;-78
2023/03/29 12:53:16;;;;;;;;;;;20.00;99.90;;;;;;4957828;28;19976;-79
2023/03/29 12:55:48;;;;;;;;;;;20.00;99.90;;;;;;4957135;28;20881;-82
2023/03/29 12:58:24;;;;;;;;;;;20.10;99.90;;;;;;4964674;28;19922;-82
2023/03/29 13:00:56;;;;;;;;;;;20.10;99.90;;;;;;4963820;28;20162;-82
2023/03/29 13:03:28;;;;;;;;;;;20.00;99.90;;;;;;4964242;28;19933;-82
2023/03/29 13:06:01;;;;;;;;;;;19.80;99.90;;;;;;4967271;28;19921;-82
2023/03/29 13:08:34;;;;;;;;;;;19.60;99.90;;;;;;4973327;28;19932;-82
2023/03/29 13:11:02;;;;;;;;;;;19.70;99.90;;;;;;4971782;28;20398;-83
2023/03/29 13:13:32;;;;;;;;;;;19.70;99.90;;;;;;4986719;28;20056;-82
2023/03/29 13:16:08;;;;;;;;;;;19.60;99.90;;;;;;4962790;28;20001;-81
2023/03/29 13:18:41;;;;;;;;;;;19.50;99.90;;;;;;4961721;28;19929;-81
2023/03/29 13:21:23;;;;;;;;;;;19.30;99.90;;;;;;4978450;28;20010;-79
2023/03/29 13:23:57;;;;;;;;;;;19.00;99.90;;;;;;4981512;28;20589;-80
2023/03/29 13:26:37;;;;;;;;;;;19.00;99.90;;;;;;4963774;28;20516;-80
2023/03/29 13:29:10;;;;;;;;;;;19.10;99.90;;;;;;4978762;28;19969;-80
2023/03/29 13:31:40;;;;;;;;;;;19.30;99.90;;;;;;4962159;28;20329;-80
2023/03/29 13:34:30;;;;;;;;;;;19.30;99.90;;;;;;4962611;28;19926;-80
2023/03/29 13:37:02;;;;;;;;;;;19.20;99.90;;;;;;4976765;28;19989;-80
2023/03/29 13:39:35;;;;;;;;;;;19.20;99.90;;;;;;4974190;28;19933;-81
2023/03/29 13:42:17;;;;;;;;;;;19.20;99.90;;;;;;4975971;28;19981;-80
2023/03/29 13:44:47;;;;;;;;;;;19.30;99.90;;;;;;4956126;28;19926;-80
2023/03/29 13:47:27;;;;;;;;;;;19.30;99.90;;;;;;4953507;28;19937;-80
2023/03/29 13:49:55;;;;;;;;;;;19.20;99.90;;;;;;4981134;28;19922;-80
2023/03/29 13:52:24;;;;;;;;;;;19.20;99.90;;;;;;4973952;28;19938;-80
2023/03/29 13:54:56;;;;;;;;;;;19.00;99.90;;;;;;4981148;28;20397;-81
2023/03/29 13:57:25;;;;;;;;;;;18.90;99.90;;;;;;4982823;28;19985;-82
2023/03/29 13:59:57;;;;;;;;;;;18.70;99.90;;;;;;4967629;28;19941;-80
2023/03/29 14:02:37;;;;;;;;;;;18.70;99.90;;;;;;4984395;28;19922;-79
2023/03/29 14:05:07;;;;;;;;;;;18.60;99.90;;;;;;4996176;28;19928;-81
2023/03/29 14:07:37;;;;;;;;;;;18.60;99.90;;;;;;4969273;28;19926;-80
2023/03/29 14:10:07;;;;;;;;;;;18.60;99.90;;;;;;4968424;28;19925;-80
2023/03/29 14:12:38;;;;;;;;;;;18.60;99.90;;;;;;4981151;28;20414;-81
2023/03/29 14:15:07;;;;;;;;;;;18.70;99.90;;;;;;4985493;28;20494;-82
2023/03/29 14:17:36;;;;;;;;;;;18.70;99.90;;;;;;4973809;28;19949;-82
2023/03/29 14:20:07;;;;;;;;;;;18.70;99.90;;;;;;4995163;28;19918;-82
2023/03/29 14:22:35;;;;;;;;;;;18.70;99.90;;;;;;4991451;28;19929;-79
2023/03/29 14:25:08;;;;;;;;;;;18.80;99.90;;;;;;4953146;29;20414;-80
2023/03/29 14:27:37;;;;;;;;;;;18.80;99.90;;;;;;4962077;29;19926;-79
2023/03/29 14:30:17;;;;;;;;;;;18.90;99.90;;;;;;4974805;28;19988;-80
2023/03/29 14:32:44;;;;;;;;;;;19.00;99.90;;;;;;4980771;28;19929;-82
2023/03/29 14:35:12;;;;;;;;;;;18.90;99.90;;;;;;4968238;28;20227;-82
2023/03/29 14:37:42;;;;;;;;;;;18.90;99.90;;;;;;4969800;28;19940;-81
2023/03/29 14:40:15;;;;;;;;;;;18.80;99.90;;;;;;4989905;28;19933;-82
2023/03/29 14:42:44;;;;;;;;;;;18.70;99.90;;;;;;4969824;28;20685;-82
2023/03/29 14:45:13;;;;;;;;;;;18.60;99.90;;;;;;4969769;28;19981;-80
2023/03/29 14:47:40;;;;;;;;;;;18.60;99.90;;;;;;4966512;28;19917;-79
2023/03/29 14:50:15;;;;;;;;;;;18.50;99.90;;;;;;4985100;28;19992;-80
2023/03/29 14:52:43;;;;;;;;;;;18.40;99.90;;;;;;4966261;28;19997;-81
2023/03/29 14:55:11;;;;;;;;;;;18.40;99.90;;;;;;4981143;28;19933;-80
2023/03/29 14:57:38;;;;;;;;;;;18.40;99.90;;;;;;4966432;28;19926;-80